AMX412 MMAA-MMMX
Flight info
| Callsign | AMX412 |
|---|---|
| Flight time | 0h 33m |
| Altitude | 25000 |
| Route | TEXCA3B TEXCA DCT TEQ DCT MEX |
| Aircraft | DC93/M-SDFHKUXYW/SD1 |
Departure
| Time | 2026-05-06 07:23 |
|---|---|
| Airport | General Juan N. Álvarez International Airport (MMAA) |
Arrival
| Time | 2026-05-06 07:57 |
|---|---|
| Airport | Mexico City Benito Juárez International Airport (MMMX) |
| Time | Latitude | Longitude | Altitude | Speed | Heading |
|---|---|---|---|---|---|
| 2026-05-06 06:40 | 16.76181 | -99.75597 | 19 ft | 0 kts | 18° |
| 2026-05-06 06:43 | 16.76190 | -99.75627 | 19 ft | 0 kts | 18° |
| 2026-05-06 06:43 | 16.76188 | -99.75620 | 19 ft | 0 kts | 200° |
| 2026-05-06 06:44 | 16.76187 | -99.75616 | 19 ft | 0 kts | 18° |
| 2026-05-06 06:44 | 16.76161 | -99.75620 | 19 ft | 0 kts | 19° |
| 2026-05-06 06:44 | 16.76157 | -99.75622 | 19 ft | 0 kts | 19° |
| 2026-05-06 07:07 | 16.76158 | -99.75622 | 19 ft | 0 kts | 19° |
| 2026-05-06 07:11 | 16.76157 | -99.75622 | 19 ft | 3 kts | 19° |
| 2026-05-06 07:11 | 16.76131 | -99.75633 | 19 ft | 11 kts | 25° |
| 2026-05-06 07:11 | 16.76110 | -99.75642 | 19 ft | 6 kts | 19° |
| 2026-05-06 07:12 | 16.76073 | -99.75655 | 19 ft | 6 kts | 36° |
| 2026-05-06 07:12 | 16.76065 | -99.75667 | 19 ft | 1 kts | 79° |
| 2026-05-06 07:12 | 16.76065 | -99.75652 | 19 ft | 4 kts | 95° |
| 2026-05-06 07:13 | 16.76060 | -99.75632 | 19 ft | 0 kts | 107° |
| 2026-05-06 07:13 | 16.76060 | -99.75631 | 19 ft | 0 kts | 107° |
| 2026-05-06 07:13 | 16.76059 | -99.75629 | 19 ft | 2 kts | 109° |
| 2026-05-06 07:14 | 16.76050 | -99.75601 | 19 ft | 7 kts | 109° |
| 2026-05-06 07:14 | 16.76030 | -99.75539 | 19 ft | 10 kts | 108° |
| 2026-05-06 07:14 | 16.76008 | -99.75471 | 19 ft | 10 kts | 108° |
| 2026-05-06 07:14 | 16.75986 | -99.75401 | 19 ft | 11 kts | 108° |
| 2026-05-06 07:15 | 16.75942 | -99.75351 | 19 ft | 8 kts | 159° |
| 2026-05-06 07:15 | 16.75896 | -99.75316 | 19 ft | 9 kts | 122° |
| 2026-05-06 07:15 | 16.75868 | -99.75241 | 19 ft | 13 kts | 108° |
| 2026-05-06 07:15 | 16.75836 | -99.75137 | 19 ft | 16 kts | 108° |
| 2026-05-06 07:16 | 16.75802 | -99.75027 | 19 ft | 16 kts | 108° |
| 2026-05-06 07:16 | 16.75767 | -99.74919 | 19 ft | 16 kts | 109° |
| 2026-05-06 07:16 | 16.75731 | -99.74810 | 19 ft | 16 kts | 108° |
| 2026-05-06 07:16 | 16.75696 | -99.74700 | 19 ft | 16 kts | 108° |
| 2026-05-06 07:17 | 16.75661 | -99.74590 | 19 ft | 16 kts | 108° |
| 2026-05-06 07:17 | 16.75627 | -99.74479 | 19 ft | 16 kts | 108° |
| 2026-05-06 07:17 | 16.75592 | -99.74367 | 19 ft | 16 kts | 108° |
| 2026-05-06 07:17 | 16.75557 | -99.74255 | 19 ft | 16 kts | 108° |
| 2026-05-06 07:18 | 16.75522 | -99.74143 | 19 ft | 16 kts | 108° |
| 2026-05-06 07:18 | 16.75487 | -99.74030 | 19 ft | 16 kts | 108° |
| 2026-05-06 07:18 | 16.75450 | -99.73909 | 19 ft | 19 kts | 108° |
| 2026-05-06 07:18 | 16.75406 | -99.73768 | 19 ft | 20 kts | 108° |
| 2026-05-06 07:19 | 16.75361 | -99.73628 | 19 ft | 20 kts | 108° |
| 2026-05-06 07:19 | 16.75318 | -99.73490 | 19 ft | 19 kts | 109° |
| 2026-05-06 07:19 | 16.75281 | -99.73392 | 19 ft | 10 kts | 127° |
| 2026-05-06 07:19 | 16.75231 | -99.73343 | 19 ft | 10 kts | 159° |
| 2026-05-06 07:20 | 16.75164 | -99.73354 | 19 ft | 10 kts | 197° |
| 2026-05-06 07:20 | 16.75103 | -99.73374 | 19 ft | 6 kts | 210° |
| 2026-05-06 07:20 | 16.75091 | -99.73406 | 19 ft | 4 kts | 283° |
| 2026-05-06 07:20 | 16.75096 | -99.73421 | 19 ft | 1 kts | 289° |
| 2026-05-06 07:21 | 16.75096 | -99.73422 | 19 ft | 0 kts | 289° |
| 2026-05-06 07:21 | 16.75096 | -99.73423 | 19 ft | 1 kts | 289° |
| 2026-05-06 07:21 | 16.75102 | -99.73439 | 19 ft | 0 kts | 288° |
| 2026-05-06 07:22 | 16.75106 | -99.73452 | 19 ft | 6 kts | 290° |
| 2026-05-06 07:22 | 16.75144 | -99.73579 | 19 ft | 39 kts | 287° |
| 2026-05-06 07:23 | 16.75297 | -99.74064 | 19 ft | 102 kts | 288° |
| 2026-05-06 07:23 | 16.75577 | -99.74962 | 41 ft | 154 kts | 288° |
| 2026-05-06 07:23 | 16.75953 | -99.76119 | 486 ft | 178 kts | 289° |
| 2026-05-06 07:23 | 16.76320 | -99.77361 | 1354 ft | 180 kts | 286° |
| 2026-05-06 07:24 | 16.76643 | -99.78636 | 2130 ft | 185 kts | 285° |
| 2026-05-06 07:24 | 16.76981 | -99.80006 | 2636 ft | 204 kts | 287° |
| 2026-05-06 07:24 | 16.77350 | -99.81484 | 3241 ft | 220 kts | 284° |
| 2026-05-06 07:24 | 16.77678 | -99.83123 | 3828 ft | 239 kts | 280° |
| 2026-05-06 07:25 | 16.77960 | -99.84962 | 4149 ft | 268 kts | 277° |
| 2026-05-06 07:25 | 16.78129 | -99.86760 | 5921 ft | 220 kts | 273° |
| 2026-05-06 07:25 | 16.78152 | -99.87729 | 7238 ft | 192 kts | 271° |
| 2026-05-06 07:25 | 16.78209 | -99.89206 | 7649 ft | 218 kts | 275° |
| 2026-05-06 07:26 | 16.78389 | -99.90861 | 7903 ft | 245 kts | 279° |
| 2026-05-06 07:26 | 16.78707 | -99.92716 | 8079 ft | 274 kts | 281° |
| 2026-05-06 07:26 | 16.79100 | -99.94741 | 8497 ft | 292 kts | 284° |
| 2026-05-06 07:26 | 16.79868 | -99.96705 | 9299 ft | 294 kts | 301° |
| 2026-05-06 07:27 | 16.81190 | -99.98322 | 10128 ft | 296 kts | 320° |
| 2026-05-06 07:27 | 16.83008 | -99.99364 | 10745 ft | 304 kts | 342° |
| 2026-05-06 07:27 | 16.85097 | -99.99604 | 11535 ft | 302 kts | 4° |
| 2026-05-06 07:27 | 16.87115 | -99.99101 | 12431 ft | 298 kts | 23° |
| 2026-05-06 07:28 | 16.88909 | -99.98048 | 13252 ft | 295 kts | 34° |
| 2026-05-06 07:28 | 16.90610 | -99.96877 | 14068 ft | 293 kts | 35° |
| 2026-05-06 07:28 | 16.93952 | -99.94351 | 15139 ft | 306 kts | 44° |
| 2026-05-06 07:29 | 16.95353 | -99.92618 | 15316 ft | 321 kts | 59° |
| 2026-05-06 07:29 | 16.96359 | -99.90502 | 15440 ft | 339 kts | 68° |
| 2026-05-06 07:29 | 16.97209 | -99.88139 | 15637 ft | 355 kts | 72° |
| 2026-05-06 07:29 | 16.97987 | -99.85673 | 16162 ft | 359 kts | 73° |
| 2026-05-06 07:30 | 16.98727 | -99.83200 | 16974 ft | 354 kts | 74° |
| 2026-05-06 07:30 | 16.99450 | -99.80750 | 17712 ft | 352 kts | 74° |
| 2026-05-06 07:30 | 17.00169 | -99.78309 | 18408 ft | 351 kts | 74° |
| 2026-05-06 07:30 | 17.00894 | -99.75856 | 18845 ft | 357 kts | 75° |
| 2026-05-06 07:31 | 17.01397 | -99.73311 | 19333 ft | 358 kts | 84° |
| 2026-05-06 07:31 | 17.01667 | -99.70725 | 19900 ft | 360 kts | 80° |
| 2026-05-06 07:31 | 17.02692 | -99.68321 | 20217 ft | 371 kts | 56° |
| 2026-05-06 07:31 | 17.04664 | -99.66555 | 20688 ft | 380 kts | 31° |
| 2026-05-06 07:32 | 17.07217 | -99.65776 | 21159 ft | 390 kts | 8° |
| 2026-05-06 07:32 | 17.09956 | -99.65874 | 21501 ft | 399 kts | 356° |
| 2026-05-06 07:32 | 17.12724 | -99.66161 | 21984 ft | 399 kts | 359° |
| 2026-05-06 07:32 | 17.15488 | -99.66100 | 22391 ft | 399 kts | 8° |
| 2026-05-06 07:33 | 17.18222 | -99.65508 | 22669 ft | 402 kts | 19° |
| 2026-05-06 07:33 | 17.20842 | -99.64503 | 23123 ft | 401 kts | 25° |
| 2026-05-06 07:33 | 17.23389 | -99.63333 | 23600 ft | 401 kts | 26° |
| 2026-05-06 07:33 | 17.25972 | -99.62183 | 23885 ft | 407 kts | 24° |
| 2026-05-06 07:34 | 17.28655 | -99.61171 | 24204 ft | 412 kts | 20° |
| 2026-05-06 07:34 | 17.31425 | -99.60347 | 24558 ft | 416 kts | 16° |
| 2026-05-06 07:34 | 17.34266 | -99.59678 | 24766 ft | 421 kts | 14° |
| 2026-05-06 07:34 | 17.37160 | -99.59102 | 24915 ft | 426 kts | 12° |
| 2026-05-06 07:35 | 17.40100 | -99.58548 | 24968 ft | 432 kts | 12° |
| 2026-05-06 07:35 | 17.43079 | -99.57958 | 24966 ft | 439 kts | 13° |
| 2026-05-06 07:35 | 17.46082 | -99.57296 | 25034 ft | 442 kts | 14° |
| 2026-05-06 07:35 | 17.49080 | -99.56556 | 25060 ft | 445 kts | 15° |
| 2026-05-06 07:36 | 17.52099 | -99.55742 | 25081 ft | 448 kts | 17° |
| 2026-05-06 07:36 | 17.55079 | -99.54904 | 25113 ft | 451 kts | 17° |
| 2026-05-06 07:36 | 17.58160 | -99.54057 | 25131 ft | 454 kts | 16° |
| 2026-05-06 07:36 | 17.61224 | -99.53217 | 25141 ft | 456 kts | 17° |
| 2026-05-06 07:37 | 17.64307 | -99.52372 | 25150 ft | 459 kts | 16° |
| 2026-05-06 07:37 | 17.67356 | -99.51549 | 25155 ft | 458 kts | 16° |
| 2026-05-06 07:37 | 17.70445 | -99.50737 | 25160 ft | 457 kts | 15° |
| 2026-05-06 07:37 | 17.73530 | -99.49950 | 25166 ft | 456 kts | 15° |
| 2026-05-06 07:38 | 17.76602 | -99.49188 | 25172 ft | 455 kts | 15° |
| 2026-05-06 07:38 | 17.79601 | -99.48457 | 25175 ft | 454 kts | 15° |
| 2026-05-06 07:38 | 17.82680 | -99.47711 | 25181 ft | 453 kts | 15° |
| 2026-05-06 07:38 | 17.85636 | -99.46991 | 25187 ft | 452 kts | 15° |
| 2026-05-06 07:39 | 17.88694 | -99.46234 | 25193 ft | 451 kts | 15° |
| 2026-05-06 07:39 | 17.91732 | -99.45464 | 25197 ft | 449 kts | 15° |
| 2026-05-06 07:39 | 17.94757 | -99.44678 | 25201 ft | 447 kts | 16° |
| 2026-05-06 07:39 | 17.97766 | -99.43878 | 25205 ft | 445 kts | 16° |
| 2026-05-06 07:40 | 18.00762 | -99.43070 | 25209 ft | 444 kts | 16° |
| 2026-05-06 07:40 | 18.03743 | -99.42257 | 25212 ft | 442 kts | 16° |
| 2026-05-06 07:40 | 18.06711 | -99.41446 | 25215 ft | 441 kts | 16° |
| 2026-05-06 07:40 | 18.09684 | -99.40645 | 25217 ft | 440 kts | 16° |
| 2026-05-06 07:41 | 18.12644 | -99.39865 | 25219 ft | 438 kts | 15° |
| 2026-05-06 07:41 | 18.15607 | -99.39101 | 25220 ft | 437 kts | 15° |
| 2026-05-06 07:41 | 18.18558 | -99.38354 | 25221 ft | 436 kts | 15° |
| 2026-05-06 07:41 | 18.21509 | -99.37610 | 25222 ft | 435 kts | 15° |
| 2026-05-06 07:42 | 18.24455 | -99.36863 | 25222 ft | 435 kts | 15° |
| 2026-05-06 07:42 | 18.27388 | -99.36105 | 25222 ft | 435 kts | 15° |
| 2026-05-06 07:42 | 18.30329 | -99.35331 | 25222 ft | 435 kts | 15° |
| 2026-05-06 07:42 | 18.33264 | -99.34548 | 25220 ft | 436 kts | 16° |
| 2026-05-06 07:43 | 18.36200 | -99.33763 | 25219 ft | 436 kts | 16° |
| 2026-05-06 07:43 | 18.39152 | -99.32981 | 25217 ft | 437 kts | 15° |
| 2026-05-06 07:43 | 18.42103 | -99.32210 | 25214 ft | 437 kts | 15° |
| 2026-05-06 07:43 | 18.45054 | -99.31447 | 25211 ft | 438 kts | 15° |
| 2026-05-06 07:44 | 18.48015 | -99.30680 | 25207 ft | 438 kts | 15° |
| 2026-05-06 07:44 | 18.50962 | -99.29906 | 25203 ft | 438 kts | 15° |
| 2026-05-06 07:44 | 18.53920 | -99.29123 | 25198 ft | 438 kts | 15° |
| 2026-05-06 07:44 | 18.56884 | -99.28342 | 25193 ft | 439 kts | 15° |
| 2026-05-06 07:45 | 18.59846 | -99.27570 | 25188 ft | 439 kts | 15° |
| 2026-05-06 07:45 | 18.62821 | -99.26793 | 25058 ft | 441 kts | 15° |
| 2026-05-06 07:45 | 18.65792 | -99.26005 | 24605 ft | 441 kts | 15° |
| 2026-05-06 07:45 | 18.68779 | -99.25222 | 24001 ft | 442 kts | 15° |
| 2026-05-06 07:46 | 18.71754 | -99.24442 | 23409 ft | 439 kts | 15° |
| 2026-05-06 07:46 | 18.74697 | -99.23680 | 22794 ft | 432 kts | 15° |
| 2026-05-06 07:46 | 18.77589 | -99.22951 | 22149 ft | 424 kts | 15° |
| 2026-05-06 07:46 | 18.80427 | -99.22257 | 21672 ft | 411 kts | 14° |
| 2026-05-06 07:47 | 18.83178 | -99.21603 | 21129 ft | 401 kts | 14° |
| 2026-05-06 07:47 | 18.85908 | -99.21088 | 20490 ft | 396 kts | 7° |
| 2026-05-06 07:47 | 18.88643 | -99.21181 | 19871 ft | 392 kts | 354° |
| 2026-05-06 07:47 | 18.91318 | -99.21653 | 19297 ft | 386 kts | 352° |
| 2026-05-06 07:48 | 18.93949 | -99.22093 | 18721 ft | 380 kts | 353° |
| 2026-05-06 07:48 | 18.96542 | -99.22492 | 18145 ft | 374 kts | 353° |
| 2026-05-06 07:48 | 18.99099 | -99.22872 | 17586 ft | 368 kts | 354° |
| 2026-05-06 07:48 | 19.01613 | -99.23239 | 17097 ft | 361 kts | 354° |
| 2026-05-06 07:49 | 19.04081 | -99.23594 | 16641 ft | 354 kts | 354° |
| 2026-05-06 07:49 | 19.06494 | -99.23934 | 16209 ft | 345 kts | 354° |
| 2026-05-06 07:49 | 19.08843 | -99.24259 | 15805 ft | 336 kts | 354° |
| 2026-05-06 07:49 | 19.11066 | -99.24561 | 15414 ft | 328 kts | 354° |
| 2026-05-06 07:50 | 19.13274 | -99.24856 | 15023 ft | 321 kts | 354° |
| 2026-05-06 07:50 | 19.15459 | -99.25144 | 14693 ft | 312 kts | 354° |
| 2026-05-06 07:50 | 19.17580 | -99.25418 | 14409 ft | 303 kts | 354° |
| 2026-05-06 07:50 | 19.19671 | -99.25684 | 14090 ft | 295 kts | 354° |
| 2026-05-06 07:51 | 19.21693 | -99.25938 | 13762 ft | 290 kts | 353° |
| 2026-05-06 07:51 | 19.23658 | -99.26179 | 13415 ft | 287 kts | 354° |
| 2026-05-06 07:51 | 19.25643 | -99.26420 | 13041 ft | 285 kts | 354° |
| 2026-05-06 07:51 | 19.27600 | -99.26652 | 12660 ft | 281 kts | 354° |
| 2026-05-06 07:52 | 19.29491 | -99.26713 | 12254 ft | 266 kts | 10° |
| 2026-05-06 07:52 | 19.31182 | -99.26059 | 11886 ft | 253 kts | 27° |
| 2026-05-06 07:52 | 19.32659 | -99.25153 | 11532 ft | 236 kts | 32° |
| 2026-05-06 07:52 | 19.33953 | -99.24188 | 11149 ft | 221 kts | 41° |
| 2026-05-06 07:53 | 19.34889 | -99.22937 | 10698 ft | 215 kts | 58° |
| 2026-05-06 07:53 | 19.35556 | -99.21560 | 10340 ft | 205 kts | 64° |
| 2026-05-06 07:53 | 19.36168 | -99.20234 | 10082 ft | 195 kts | 62° |
| 2026-05-06 07:53 | 19.36840 | -99.19001 | 9759 ft | 192 kts | 58° |
| 2026-05-06 07:54 | 19.37555 | -99.17834 | 9382 ft | 185 kts | 56° |
| 2026-05-06 07:54 | 19.38241 | -99.16706 | 9094 ft | 176 kts | 57° |
| 2026-05-06 07:54 | 19.38845 | -99.15655 | 8868 ft | 161 kts | 59° |
| 2026-05-06 07:54 | 19.39402 | -99.14663 | 8599 ft | 153 kts | 59° |
| 2026-05-06 07:55 | 19.39940 | -99.13719 | 8335 ft | 147 kts | 59° |
| 2026-05-06 07:55 | 19.40464 | -99.12803 | 8074 ft | 144 kts | 58° |
| 2026-05-06 07:55 | 19.41036 | -99.11940 | 7877 ft | 144 kts | 52° |
| 2026-05-06 07:55 | 19.41621 | -99.11088 | 7723 ft | 142 kts | 58° |
| 2026-05-06 07:56 | 19.42141 | -99.10166 | 7597 ft | 146 kts | 58° |
| 2026-05-06 07:56 | 19.42650 | -99.09248 | 7444 ft | 144 kts | 59° |
| 2026-05-06 07:56 | 19.43158 | -99.08344 | 7333 ft | 139 kts | 59° |
| 2026-05-06 07:56 | 19.43611 | -99.07541 | 7323 ft | 115 kts | 62° |
| 2026-05-06 07:57 | 19.43894 | -99.07028 | 7322 ft | 50 kts | 62° |
| 2026-05-06 07:57 | 19.43995 | -99.06841 | 7322 ft | 23 kts | 58° |
| 2026-05-06 07:57 | 19.44036 | -99.06771 | 7322 ft | 5 kts | 55° |
| 2026-05-06 07:57 | 19.44038 | -99.06768 | 7322 ft | 5 kts | 55° |
| 2026-05-06 07:58 | 19.44052 | -99.06750 | 7322 ft | 6 kts | 46° |
| 2026-05-06 07:58 | 19.44087 | -99.06719 | 7322 ft | 8 kts | 34° |
| 2026-05-06 07:58 | 19.44136 | -99.06692 | 7322 ft | 6 kts | 21° |
| 2026-05-06 07:58 | 19.44171 | -99.06691 | 7322 ft | 6 kts | 335° |
| 2026-05-06 07:59 | 19.44187 | -99.06731 | 7322 ft | 7 kts | 263° |
| 2026-05-06 07:59 | 19.44159 | -99.06787 | 7322 ft | 10 kts | 240° |
| 2026-05-06 07:59 | 19.44116 | -99.06862 | 7322 ft | 14 kts | 237° |
| 2026-05-06 07:59 | 19.44073 | -99.06937 | 7322 ft | 11 kts | 241° |
| 2026-05-06 08:00 | 19.44038 | -99.07002 | 7322 ft | 9 kts | 239° |
| 2026-05-06 08:00 | 19.44005 | -99.07060 | 7322 ft | 9 kts | 239° |
| 2026-05-06 08:00 | 19.43973 | -99.07120 | 7322 ft | 10 kts | 237° |
| 2026-05-06 08:00 | 19.43933 | -99.07189 | 7322 ft | 12 kts | 239° |
| 2026-05-06 08:01 | 19.43886 | -99.07275 | 7322 ft | 15 kts | 239° |
| 2026-05-06 08:01 | 19.43829 | -99.07377 | 7322 ft | 17 kts | 239° |
| 2026-05-06 08:01 | 19.43789 | -99.07450 | 7322 ft | 8 kts | 238° |
| 2026-05-06 08:01 | 19.43759 | -99.07502 | 7322 ft | 9 kts | 239° |
| 2026-05-06 08:02 | 19.43727 | -99.07559 | 7322 ft | 10 kts | 239° |
| 2026-05-06 08:02 | 19.43689 | -99.07627 | 7322 ft | 12 kts | 239° |
| 2026-05-06 08:02 | 19.43645 | -99.07704 | 7322 ft | 14 kts | 239° |
| 2026-05-06 08:08 | 19.43636 | -99.07721 | 7322 ft | 13 kts | 239° |
| 2026-05-06 08:08 | 19.43601 | -99.07803 | 7322 ft | 11 kts | 272° |
| 2026-05-06 08:08 | 19.43616 | -99.07869 | 7322 ft | 8 kts | 289° |
| 2026-05-06 08:09 | 19.43630 | -99.07911 | 7322 ft | 0 kts | 290° |